Time;durP1;ratioP1;P1;durP2;ratioP2;P2;SDS_P1;SDS_P2;PMS_P1;PMS_P2;Temp;Humidity;BMP_temperature;BMP_pressure;BME280_temperature;BME280_humidity;BME280_pressure;Samples;Min_cycle;Max_cycle;Signal;HPM_P1;HPM_P2
2022/05/04 00:01:35;;;;;;;11.45;4.88;;;;;;;10.88;73.12;101039.56;5015835;28;20069;-65
2022/05/04 00:04:03;;;;;;;6.05;4.95;;;;;;;10.87;73.04;101039.66;5007916;28;20050;-64
2022/05/04 00:06:30;;;;;;;8.07;4.63;;;;;;;10.81;73.63;101032.94;5004324;28;20057;-64
2022/05/04 00:08:57;;;;;;;7.75;4.75;;;;;;;10.79;73.42;101041.84;5002565;28;20422;-64
2022/05/04 00:11:24;;;;;;;7.38;5.30;;;;;;;10.77;72.75;101043.72;5007189;28;20049;-65
2022/05/04 00:13:51;;;;;;;8.55;5.40;;;;;;;10.75;73.14;101049.03;5002544;28;20041;-68
2022/05/04 00:16:18;;;;;;;10.07;5.50;;;;;;;10.74;73.78;101041.22;5006252;28;20053;-66
2022/05/04 00:18:46;;;;;;;7.88;5.22;;;;;;;10.73;73.63;101045.66;4986986;28;20065;-65
2022/05/04 00:21:13;;;;;;;6.88;4.68;;;;;;;10.69;73.07;101041.47;5003277;28;20514;-65
2022/05/04 00:23:40;;;;;;;5.88;5.22;;;;;;;10.63;73.68;101042.66;5001174;28;20069;-65
2022/05/04 00:26:07;;;;;;;5.93;5.05;;;;;;;10.58;73.38;101041.16;5005731;28;20079;-64
2022/05/04 00:28:34;;;;;;;9.38;5.55;;;;;;;10.54;73.68;101042.28;4989931;28;20534;-63
2022/05/04 00:31:01;;;;;;;6.15;4.80;;;;;;;10.52;73.29;101039.72;5005631;28;20061;-65
2022/05/04 00:33:28;;;;;;;8.07;4.88;;;;;;;10.52;73.59;101038.88;5004377;28;20065;-65
2022/05/04 00:35:55;;;;;;;7.85;5.57;;;;;;;10.52;73.67;101047.63;5003094;28;20065;-65
2022/05/04 00:38:23;;;;;;;7.18;5.68;;;;;;;10.52;73.51;101046.78;5005920;28;20534;-65
2022/05/04 00:40:50;;;;;;;7.65;5.20;;;;;;;10.52;73.30;101036.25;4988409;28;20076;-65
2022/05/04 00:43:24;;;;;;;9.63;4.90;;;;;;;10.54;73.84;101039.66;5010992;28;20157;-65
2022/05/04 00:45:52;;;;;;;10.35;5.43;;;;;;;10.55;73.88;101050.09;5006427;28;20058;-65
2022/05/04 00:48:19;;;;;;;9.27;5.15;;;;;;;10.47;74.87;101038.25;5001240;28;20184;-63
2022/05/04 00:50:48;;;;;;;7.20;5.18;;;;;;;10.42;75.43;101037.66;5004669;28;20046;-64
2022/05/04 00:53:16;;;;;;;9.70;6.10;;;;;;;10.35;75.44;101042.38;4990607;28;20046;-65
2022/05/04 00:55:44;;;;;;;6.22;4.72;;;;;;;10.30;75.91;101049.66;5004483;28;20057;-64
2022/05/04 01:00:59;;;;;;;14.00;5.82;;;;;;;10.20;75.54;101041.34;4989439;28;20426;-64
2022/05/04 01:03:27;;;;;;;8.98;5.20;;;;;;;10.18;76.00;101043.22;5007284;28;20042;-64
2022/05/04 01:05:54;;;;;;;6.93;5.13;;;;;;;10.17;76.29;101048.53;5002666;28;20066;-64
2022/05/04 01:08:21;;;;;;;15.88;5.53;;;;;;;10.13;77.33;101045.19;5006697;28;20038;-64
2022/05/04 01:10:48;;;;;;;7.90;6.03;;;;;;;10.09;77.19;101055.03;5002408;28;20176;-64
2022/05/04 01:13:18;;;;;;;7.35;5.55;;;;;;;10.07;77.36;101048.16;5004578;28;20054;-64
2022/05/04 01:15:46;;;;;;;8.55;5.63;;;;;;;10.07;77.51;101050.78;5004006;28;20069;-63
2022/05/04 01:18:13;;;;;;;8.57;5.57;;;;;;;10.08;77.16;101055.09;4990559;28;20552;-65
2022/05/04 01:20:40;;;;;;;7.03;5.57;;;;;;;10.06;77.52;101049.94;5003129;28;20053;-64
2022/05/04 01:23:07;;;;;;;9.45;6.13;;;;;;;10.02;77.60;101053.63;5007418;28;20086;-65
2022/05/04 01:25:35;;;;;;;6.18;5.47;;;;;;;10.00;77.38;101046.78;4990429;28;20057;-64
2022/05/04 01:28:02;;;;;;;9.30;6.57;;;;;;;9.95;78.85;101047.00;5004877;28;20058;-64
2022/05/04 01:30:32;;;;;;;7.25;5.82;;;;;;;9.90;78.70;101052.47;5009710;28;20064;-64
2022/05/04 01:33:00;;;;;;;14.18;6.05;;;;;;;9.87;78.91;101052.63;5011897;28;20053;-64
2022/05/04 01:35:27;;;;;;;11.30;5.82;;;;;;;9.85;78.64;101049.19;4998418;28;20049;-64
2022/05/04 01:37:55;;;;;;;9.55;6.18;;;;;;;9.83;79.18;101052.84;5005095;28;20050;-64
2022/05/04 01:40:22;;;;;;;9.23;5.70;;;;;;;9.80;78.99;101048.59;5007329;28;20156;-64
2022/05/04 01:42:49;;;;;;;8.48;6.05;;;;;;;9.79;79.50;101053.94;5011102;28;20050;-64
2022/05/04 01:45:16;;;;;;;9.98;6.38;;;;;;;9.77;78.76;101058.38;5009539;28;20061;-64
2022/05/04 01:47:50;;;;;;;7.15;5.85;;;;;;;9.75;79.01;101049.75;5007653;28;20441;-64
2022/05/04 01:50:17;;;;;;;9.20;5.75;;;;;;;9.74;79.61;101055.94;5001564;28;20065;-65
2022/05/04 01:52:44;;;;;;;6.65;5.80;;;;;;;9.72;79.65;101055.13;5009090;28;20057;-65
2022/05/04 01:55:13;;;;;;;9.98;7.05;;;;;;;9.69;79.94;101052.69;5011906;28;20042;-65
2022/05/04 01:57:40;;;;;;;9.63;6.32;;;;;;;9.66;79.83;101051.03;4993195;28;20497;-64
2022/05/04 02:00:07;;;;;;;9.48;6.97;;;;;;;9.63;80.08;101056.44;5009737;28;20056;-64
2022/05/04 02:02:35;;;;;;;9.57;6.03;;;;;;;9.61;80.26;101051.25;5008018;28;20053;-65
2022/05/04 02:05:04;;;;;;;9.02;6.00;;;;;;;9.58;80.45;101051.41;4990317;28;20645;-65
2022/05/04 02:07:33;;;;;;;10.32;6.43;;;;;;;9.54;80.98;101048.97;5013780;28;20383;-65
2022/05/04 02:10:02;;;;;;;8.20;6.15;;;;;;;9.49;81.77;101049.22;5007950;28;20096;-64
2022/05/04 02:12:30;;;;;;;14.15;6.47;;;;;;;9.44;81.83;101048.56;4987975;28;20057;-65
2022/05/04 02:14:57;;;;;;;8.98;6.97;;;;;;;9.42;81.91;101052.22;5006457;28;20061;-65
2022/05/04 02:17:24;;;;;;;8.05;6.70;;;;;;;9.39;82.90;101047.94;5009039;28;20050;-65
2022/05/04 02:19:52;;;;;;;9.55;6.18;;;;;;;9.33;82.65;101050.88;5008963;28;20042;-64
2022/05/04 02:22:19;;;;;;;11.07;6.70;;;;;;;9.27;83.01;101048.50;5008938;28;20080;-64
2022/05/04 02:24:46;;;;;;;9.85;6.82;;;;;;;9.27;83.34;101053.78;5008314;28;20058;-64
2022/05/04 02:27:13;;;;;;;8.70;6.80;;;;;;;9.22;83.66;101053.13;5011959;28;20461;-64
2022/05/04 02:29:41;;;;;;;9.60;6.40;;;;;;;9.10;84.58;101058.03;5003920;28;20050;-65
2022/05/04 02:32:08;;;;;;;10.35;6.88;;;;;;;9.10;83.39;101058.03;5012826;28;20054;-65
2022/05/04 02:37:54;;;;;;;9.45;6.63;;;;;;;9.08;84.20;101053.78;4991008;28;20053;-65
2022/05/04 02:40:10;;;;;;;11.98;7.07;;;;;;;8.98;85.04;101053.34;4988843;28;20038;-64
2022/05/04 02:42:37;;;;;;;9.98;7.28;;;;;;;8.94;85.27;101053.56;5005508;28;20089;-65
2022/05/04 02:45:05;;;;;;;10.95;7.03;;;;;;;8.93;84.91;101057.09;5006781;28;20057;-65
2022/05/04 02:47:32;;;;;;;9.20;6.47;;;;;;;8.92;84.66;101051.00;4986420;28;20060;-65
2022/05/04 02:49:59;;;;;;;13.93;6.95;;;;;;;8.85;85.19;101057.44;5011850;28;20733;-65
2022/05/04 02:52:26;;;;;;;11.77;6.68;;;;;;;8.80;86.05;101056.81;5014134;28;20045;-65
2022/05/04 02:54:53;;;;;;;10.98;6.97;;;;;;;8.74;85.93;101055.31;5006285;28;20518;-66
2022/05/04 02:57:21;;;;;;;11.18;7.25;;;;;;;8.73;85.98;101058.81;5010051;28;20069;-65
2022/05/04 02:59:48;;;;;;;11.00;6.78;;;;;;;8.78;85.42;101061.25;4991010;28;20410;-65
2022/05/04 03:02:28;;;;;;;12.70;7.63;;;;;;;8.73;86.43;101061.44;5009840;28;20042;-65
2022/05/04 03:05:05;;;;;;;13.65;7.95;;;;;;;8.68;86.87;101057.34;5003772;28;20399;-65
2022/05/04 03:07:32;;;;;;;10.77;6.90;;;;;;;8.66;86.78;101059.19;5007345;28;20056;-65
2022/05/04 03:09:59;;;;;;;14.63;8.63;;;;;;;8.67;87.45;101063.50;5007023;28;20045;-65
2022/05/04 03:12:27;;;;;;;12.55;6.60;;;;;;;8.65;87.01;101060.97;5007988;28;20611;-64
2022/05/04 03:14:54;;;;;;;11.15;7.50;;;;;;;8.68;86.76;101062.59;5002554;28;20060;-65
2022/05/04 03:17:22;;;;;;;13.07;8.05;;;;;;;8.70;87.31;101063.38;5002598;28;20057;-65
2022/05/04 03:19:49;;;;;;;11.20;7.78;;;;;;;8.67;86.49;101064.34;5007674;28;20407;-65
2022/05/04 03:22:17;;;;;;;12.60;8.00;;;;;;;8.65;87.58;101060.13;5009202;28;20046;-64
2022/05/04 03:24:44;;;;;;;13.32;7.50;;;;;;;8.60;87.93;101060.28;4984938;28;20061;-64
2022/05/04 03:27:11;;;;;;;10.80;7.32;;;;;;;8.59;88.15;101056.81;5007315;28;20054;-65
2022/05/04 03:29:38;;;;;;;11.98;7.63;;;;;;;8.67;87.99;101066.13;5004312;28;20383;-64
2022/05/04 03:32:06;;;;;;;12.82;8.00;;;;;;;8.72;88.12;101065.00;5003154;28;20418;-65
2022/05/04 03:34:33;;;;;;;10.85;6.75;;;;;;;8.72;87.44;101062.38;5005688;28;20046;-63
2022/05/04 03:37:00;;;;;;;11.70;7.57;;;;;;;8.77;87.35;101064.81;5002994;28;20061;-65
2022/05/04 03:39:28;;;;;;;13.10;8.10;;;;;;;8.76;87.83;101061.31;5004077;28;20045;-64
2022/05/04 03:41:55;;;;;;;11.68;8.30;;;;;;;8.78;87.20;101059.50;5006381;28;20049;-64
2022/05/04 03:44:22;;;;;;;10.95;7.95;;;;;;;8.79;87.19;101062.97;5001451;28;20050;-64
2022/05/04 03:46:51;;;;;;;13.63;7.13;;;;;;;8.79;87.88;101066.44;5002139;28;20415;-64
2022/05/04 03:49:22;;;;;;;13.43;7.45;;;;;;;8.81;87.25;101066.38;5002637;28;20392;-64
2022/05/04 03:51:50;;;;;;;12.35;6.93;;;;;;;8.85;87.34;101065.31;5001513;28;20046;-63
2022/05/04 03:54:17;;;;;;;10.60;7.07;;;;;;;8.85;87.10;101068.78;5004363;28;20502;-64
2022/05/04 03:56:44;;;;;;;12.77;7.25;;;;;;;8.88;87.11;101066.03;5002941;28;20057;-65
2022/05/04 03:59:11;;;;;;;11.90;7.28;;;;;;;8.97;86.35;101066.56;5010306;28;20049;-64
2022/05/04 04:01:38;;;;;;;9.40;7.45;;;;;;;9.02;86.56;101061.94;5003511;28;20057;-65
2022/05/04 04:04:06;;;;;;;11.23;7.32;;;;;;;9.05;86.79;101067.03;5007786;28;20054;-65
2022/05/04 04:06:33;;;;;;;9.73;7.25;;;;;;;9.09;86.03;101066.81;4988831;28;20047;-64
2022/05/04 04:09:01;;;;;;;11.77;7.13;;;;;;;9.16;85.30;101066.56;5010821;28;20156;-64
2022/05/04 04:11:29;;;;;;;10.32;7.13;;;;;;;9.17;86.33;101068.25;5007162;28;20096;-65
2022/05/04 04:13:57;;;;;;;13.10;7.97;;;;;;;9.15;86.45;101075.38;5005592;28;20153;-65
2022/05/04 04:16:24;;;;;;;12.95;7.50;;;;;;;9.22;85.42;101072.38;5008680;28;20573;-64
2022/05/04 04:18:51;;;;;;;12.68;7.70;;;;;;;9.38;85.85;101072.53;5005965;28;20053;-64
2022/05/04 04:24:05;;;;;;;28.67;9.85;;;;;;;9.55;84.96;101079.63;5009317;28;20532;-64
2022/05/04 04:26:32;;;;;;;14.93;8.25;;;;;;;9.62;84.14;101081.03;5005962;28;20069;-65
2022/05/04 04:28:59;;;;;;;15.35;8.40;;;;;;;9.73;83.93;101081.38;4986192;28;20064;-64
2022/05/04 04:31:27;;;;;;;13.93;8.32;;;;;;;9.81;82.94;101080.97;5008771;28;20036;-65
2022/05/04 04:33:54;;;;;;;13.25;8.10;;;;;;;9.87;82.36;101084.19;5007231;28;20064;-65
2022/05/04 04:36:22;;;;;;;12.73;8.13;;;;;;;9.94;82.16;101076.84;5003281;28;20058;-65
2022/05/04 04:38:49;;;;;;;13.95;8.77;;;;;;;10.04;81.46;101077.22;5022969;23;20052;-64
2022/05/04 04:41:16;;;;;;;14.25;8.52;;;;;;;10.15;81.42;101077.56;5025107;28;20064;-63
2022/05/04 04:43:43;;;;;;;13.27;8.65;;;;;;;10.26;81.33;101088.41;5024722;28;20068;-62
2022/05/04 04:46:11;;;;;;;13.93;7.72;;;;;;;10.38;81.90;101093.06;5024760;28;20619;-65
2022/05/04 04:48:38;;;;;;;17.08;8.27;;;;;;;10.46;82.02;101092.69;5022679;28;20053;-65
2022/05/04 04:51:05;;;;;;;16.58;9.73;;;;;;;10.52;81.07;101094.16;5029490;28;20055;-63
2022/05/04 04:53:32;;;;;;;15.07;9.82;;;;;;;10.59;79.87;101088.50;5024972;28;20053;-64
2022/05/04 04:55:59;;;;;;;16.13;10.68;;;;;;;10.69;79.31;101095.94;5020720;28;20080;-63
2022/05/04 04:58:27;;;;;;;13.88;9.43;;;;;;;10.75;80.33;101095.59;5024172;28;20042;-63
2022/05/04 05:00:54;;;;;;;15.68;9.98;;;;;;;10.81;82.20;101101.41;5024903;28;20060;-64
2022/05/04 05:03:21;;;;;;;16.00;8.57;;;;;;;10.84;83.63;101097.75;5022527;28;20075;-63
2022/05/04 05:05:48;;;;;;;12.20;7.97;;;;;;;10.94;81.49;101090.22;5025755;28;20456;-62
2022/05/04 05:08:15;;;;;;;10.20;8.32;;;;;;;11.03;78.21;101090.59;5034385;28;20056;-63
2022/05/04 05:10:42;;;;;;;14.73;8.73;;;;;;;11.13;77.96;101101.50;5019526;28;20072;-65
2022/05/04 05:13:09;;;;;;;10.80;8.70;;;;;;;11.22;77.80;101090.44;5031914;28;20620;-64
2022/05/04 05:18:24;;;;;;;13.77;8.13;;;;;;;11.40;76.18;101099.16;5027913;28;20053;-65
2022/05/04 05:20:52;;;;;;;12.85;7.75;;;;;;;11.48;75.31;101102.19;4989477;28;20060;-65
2022/05/04 05:23:23;;;;;;;15.63;8.13;;;;;;;11.59;74.74;101099.81;5014732;28;20873;-66
2022/05/04 05:25:51;;;;;;;14.48;7.65;;;;;;;11.70;74.35;101101.84;5025291;28;20050;-66
2022/05/04 05:28:18;;;;;;;15.02;8.05;;;;;;;11.80;73.75;101108.34;5027196;28;20056;-67
2022/05/04 05:30:45;;;;;;;15.93;8.30;;;;;;;11.93;74.16;101099.72;5022642;28;20060;-67
2022/05/04 05:33:12;;;;;;;13.32;7.63;;;;;;;12.08;73.11;101099.72;5030432;28;20068;-67
2022/05/04 05:35:40;;;;;;;14.35;7.85;;;;;;;12.19;73.17;101100.88;5026688;28;20048;-68
2022/05/04 05:38:09;;;;;;;13.25;8.75;;;;;;;12.29;72.20;101105.56;5010865;28;20454;-67
2022/05/04 05:40:36;;;;;;;13.93;7.90;;;;;;;12.35;72.35;101104.34;5028349;28;20075;-67
2022/05/04 05:43:03;;;;;;;10.88;8.43;;;;;;;12.35;72.30;101110.47;5027091;28;20049;-66
2022/05/04 05:45:31;;;;;;;14.05;8.95;;;;;;;12.43;70.24;101110.03;5033628;28;20092;-67
2022/05/04 05:47:58;;;;;;;16.40;8.70;;;;;;;12.47;69.85;101108.88;5030543;28;20627;-67
2022/05/04 05:50:25;;;;;;;11.93;8.38;;;;;;;12.64;69.64;101111.38;5027159;28;20049;-67
2022/05/04 05:52:52;;;;;;;18.52;8.23;;;;;;;12.77;68.81;101110.63;5024755;28;20049;-68
2022/05/04 05:55:19;;;;;;;16.60;8.65;;;;;;;12.84;69.03;101118.13;5027054;28;20464;-67
2022/05/04 05:57:46;;;;;;;18.23;7.60;;;;;;;12.96;68.19;101113.00;5034820;28;20057;-66
2022/05/04 06:00:14;;;;;;;18.40;8.35;;;;;;;13.05;67.76;101115.94;5026701;28;20055;-63
2022/05/04 06:02:41;;;;;;;15.02;7.97;;;;;;;13.17;68.31;101112.53;5022274;28;20072;-62
2022/05/04 06:05:08;;;;;;;21.80;9.00;;;;;;;13.33;66.84;101111.66;5034965;28;20391;-62
2022/05/04 06:07:37;;;;;;;16.98;8.55;;;;;;;13.40;67.01;101113.78;5038687;28;20045;-62
2022/05/04 06:10:08;;;;;;;20.40;7.90;;;;;;;13.50;66.91;101110.56;5026533;28;20029;-62
2022/05/04 06:12:35;;;;;;;13.70;8.48;;;;;;;13.65;66.01;101105.16;5032517;28;20044;-62
2022/05/04 06:15:02;;;;;;;18.38;8.68;;;;;;;13.72;65.15;101108.25;5025251;28;20562;-63
2022/05/04 06:17:29;;;;;;;14.23;9.35;;;;;;;13.75;64.31;101107.19;5021440;28;20128;-63
2022/05/04 06:19:56;;;;;;;12.25;8.55;;;;;;;13.87;63.53;101101.13;5021714;28;20072;-62
2022/05/04 06:22:23;;;;;;;15.85;9.50;;;;;;;14.03;63.26;101107.09;5026065;28;20061;-62
2022/05/04 06:24:50;;;;;;;18.02;9.48;;;;;;;14.07;64.18;101110.41;5025687;28;20053;-63
2022/05/04 06:27:17;;;;;;;22.70;8.95;;;;;;;14.21;62.76;101104.19;5027737;28;20123;-62
2022/05/04 06:35:15;;;;;;;18.63;9.65;;;;;;;14.28;61.65;101111.63;5029976;28;20076;-62
2022/05/04 06:37:43;;;;;;;13.13;8.63;;;;;;;14.43;61.30;101112.41;5024462;28;20485;-62
2022/05/04 06:40:10;;;;;;;17.33;8.75;;;;;;;14.59;60.72;101115.75;5028156;28;20049;-62
2022/05/04 06:42:37;;;;;;;14.55;8.40;;;;;;;14.59;61.66;101117.53;5025509;28;20046;-62
2022/05/04 06:45:06;;;;;;;17.60;9.45;;;;;;;14.61;60.96;101113.00;5032777;28;20053;-62
2022/05/04 06:47:33;;;;;;;21.20;9.00;;;;;;;14.72;61.67;101115.75;5029128;28;20041;-62
2022/05/04 06:50:00;;;;;;;13.95;8.30;;;;;;;14.81;62.49;101116.91;5030915;28;20409;-62
2022/05/04 06:52:27;;;;;;;20.77;9.68;;;;;;;14.94;60.35;101121.25;5028936;28;20049;-62
2022/05/04 06:54:54;;;;;;;16.63;8.38;;;;;;;14.98;59.08;101124.56;5032133;28;20068;-62
2022/05/04 06:57:21;;;;;;;21.42;8.85;;;;;;;14.94;58.28;101117.75;5025487;28;20080;-62
2022/05/04 06:59:49;;;;;;;19.35;8.80;;;;;;;14.86;58.54;101120.09;5027363;28;20525;-63
2022/05/04 07:02:17;;;;;;;16.02;8.25;;;;;;;14.99;58.20;101118.28;5025484;28;20094;-62
2022/05/04 07:04:44;;;;;;;19.92;9.20;;;;;;;15.05;57.63;101120.53;5023718;28;20053;-62
2022/05/04 07:07:11;;;;;;;19.48;7.55;;;;;;;15.14;56.81;101119.88;5022215;28;20240;-62
2022/05/04 07:09:39;;;;;;;13.20;7.43;;;;;;;15.23;56.20;101121.03;5026732;28;20391;-63
2022/05/04 07:12:07;;;;;;;17.05;7.35;;;;;;;15.45;55.32;101117.72;5027989;28;20088;-62
2022/05/04 07:14:34;;;;;;;14.15;8.40;;;;;;;15.57;55.49;101106.19;5025920;28;20053;-62
2022/05/04 07:17:01;;;;;;;11.90;7.28;;;;;;;15.78;55.64;101113.63;5022578;28;20041;-64
2022/05/04 07:19:28;;;;;;;15.90;7.53;;;;;;;15.93;54.99;101109.81;5029609;28;20125;-62
2022/05/04 07:21:55;;;;;;;18.15;8.90;;;;;;;16.04;54.96;101107.25;5021980;28;20060;-62
2022/05/04 07:24:22;;;;;;;12.00;8.52;;;;;;;16.08;54.16;101111.38;5024209;28;20049;-63
2022/05/04 07:26:49;;;;;;;19.83;8.65;;;;;;;16.26;54.31;101110.97;5018320;28;20386;-64
2022/05/04 07:29:16;;;;;;;19.10;8.93;;;;;;;16.35;53.51;101110.28;5015976;28;20068;-63
2022/05/04 07:31:44;;;;;;;14.88;8.55;;;;;;;16.54;53.37;101113.22;5006255;28;20073;-63
2022/05/04 07:34:14;;;;;;;19.98;9.82;;;;;;;16.75;53.07;101112.56;4995963;28;20064;-63
2022/05/04 07:36:41;;;;;;;17.00;8.98;;;;;;;16.66;52.79;101114.94;5026711;28;20058;-63
2022/05/04 07:39:08;;;;;;;14.75;8.90;;;;;;;16.40;52.28;101111.59;5004383;28;20649;-63
2022/05/04 07:44:21;;;;;;;13.40;8.25;;;;;;;16.34;53.11;101106.72;5022443;28;20060;-63
2022/05/04 07:46:49;;;;;;;19.33;9.50;;;;;;;16.39;52.97;101107.25;5027098;28;20053;-63
2022/05/04 07:49:16;;;;;;;13.38;8.23;;;;;;;16.42;52.75;101108.81;5028855;28;20053;-63
2022/05/04 07:51:43;;;;;;;17.85;9.32;;;;;;;16.41;52.49;101110.63;5012505;28;20050;-63
2022/05/04 07:54:11;;;;;;;12.70;7.43;;;;;;;16.61;51.08;101108.25;5021489;28;20037;-63
2022/05/04 07:56:40;;;;;;;16.65;7.65;;;;;;;16.71;50.78;101115.44;5024194;28;20053;-63
2022/05/04 07:59:07;;;;;;;13.30;7.03;;;;;;;16.63;50.64;101114.31;5030271;28;20383;-63
2022/05/04 08:04:21;;;;;;;7.20;5.85;;;;;;;16.84;48.86;101117.16;5029125;28;20049;-63
2022/05/04 08:06:48;;;;;;;8.40;6.60;;;;;;;16.98;48.42;101124.94;5030992;28;20045;-63
2022/05/04 08:09:16;;;;;;;15.30;7.28;;;;;;;17.06;48.25;101126.97;5025858;28;20594;-63
2022/05/04 08:11:44;;;;;;;9.90;6.35;;;;;;;17.15;48.03;101124.44;5005151;28;20041;-63
2022/05/04 08:14:12;;;;;;;11.20;6.53;;;;;;;17.19;48.51;101130.38;5015054;28;20078;-63
2022/05/04 08:16:39;;;;;;;14.65;5.97;;;;;;;17.25;48.33;101129.06;5024685;28;20056;-63
2022/05/04 08:19:07;;;;;;;16.80;6.13;;;;;;;17.50;47.90;101119.97;5019656;28;20054;-63
2022/05/04 08:21:35;;;;;;;14.18;6.72;;;;;;;17.64;46.94;101125.00;5029557;28;20041;-63
2022/05/04 08:24:02;;;;;;;9.77;6.10;;;;;;;17.62;46.56;101121.63;5025442;28;20060;-63
2022/05/04 08:26:42;;;;;;;9.63;5.93;;;;;;;17.69;46.24;101126.31;5032287;28;20065;-63
2022/05/04 08:29:09;;;;;;;12.00;6.35;;;;;;;17.74;46.86;101119.81;5021899;28;20045;-63
2022/05/04 08:31:40;;;;;;;19.45;7.00;;;;;;;17.74;45.82;101125.97;5004114;28;20063;-64
2022/05/04 08:34:08;;;;;;;13.90;6.60;;;;;;;17.82;46.31;101117.38;5026492;28;20684;-63
2022/05/04 08:36:37;;;;;;;12.30;6.47;;;;;;;18.00;45.88;101128.34;5025778;28;20068;-63
2022/05/04 08:39:09;;;;;;;10.75;5.78;;;;;;;18.11;45.51;101123.84;5024703;28;20049;-63
2022/05/04 08:41:40;;;;;;;13.15;5.72;;;;;;;18.35;45.05;101120.09;5030747;28;20045;-63
2022/05/04 08:44:08;;;;;;;12.95;4.70;;;;;;;18.60;43.20;101119.72;5029881;28;20061;-64
2022/05/04 08:46:43;;;;;;;8.30;3.95;;;;;;;18.75;42.62;101122.09;5029536;28;20057;-63
2022/05/04 08:49:12;;;;;;;9.45;4.22;;;;;;;18.95;42.37;101118.56;5010037;28;20140;-63
2022/05/04 08:51:40;;;;;;;9.60;4.10;;;;;;;19.05;41.35;101121.25;5026355;28;20045;-63
2022/05/04 08:54:08;;;;;;;7.15;4.55;;;;;;;19.34;41.48;101121.41;5030446;28;20083;-63
2022/05/04 08:56:35;;;;;;;9.88;4.47;;;;;;;19.64;40.71;101116.06;5031476;28;20063;-63
2022/05/04 08:59:03;;;;;;;5.43;4.20;;;;;;;19.84;39.76;101113.41;5026143;28;20053;-63
2022/05/04 09:01:32;;;;;;;7.38;4.38;;;;;;;19.89;39.13;101112.00;5027318;28;20057;-63
2022/05/04 09:03:59;;;;;;;7.85;3.90;;;;;;;19.92;39.75;101113.56;5031602;28;20284;-63
2022/05/04 09:06:28;;;;;;;7.25;4.20;;;;;;;20.06;38.78;101105.13;5029026;28;20222;-63
2022/05/04 09:09:11;;;;;;;9.43;3.83;;;;;;;20.46;38.48;101102.28;5033930;28;20061;-63
2022/05/04 09:11:39;;;;;;;8.63;3.70;;;;;;;20.45;38.46;101105.97;5032641;28;20492;-63
2022/05/04 09:14:13;;;;;;;5.50;3.78;;;;;;;20.69;37.61;101115.38;5030139;28;20478;-64
2022/05/04 09:16:40;;;;;;;7.95;3.65;;;;;;;20.68;37.88;101109.19;5028033;28;20066;-63
2022/05/04 09:19:13;;;;;;;5.30;2.97;;;;;;;20.90;37.54;101113.38;5030132;28;20148;-63
2022/05/04 09:21:40;;;;;;;7.22;3.47;;;;;;;21.11;36.88;101109.63;5026499;28;20049;-63
2022/05/04 09:24:09;;;;;;;5.35;3.60;;;;;;;20.71;36.82;101110.72;5033011;28;20404;-63
2022/05/04 09:26:40;;;;;;;6.70;3.10;;;;;;;20.40;37.35;101102.03;5036946;28;20046;-63
2022/05/04 09:29:10;;;;;;;6.15;3.65;;;;;;;20.52;37.10;101108.09;5037072;28;20052;-63
2022/05/04 09:31:40;;;;;;;15.40;4.00;;;;;;;20.17;38.02;101104.13;5024856;28;20050;-63
2022/05/04 09:34:08;;;;;;;10.23;4.90;;;;;;;20.15;38.31;101098.09;5023649;28;20061;-63
2022/05/04 09:36:38;;;;;;;6.95;4.20;;;;;;;20.35;37.45;101097.09;5025576;28;20679;-64
2022/05/04 09:45:14;;;;;;;8.57;3.72;;;;;;;21.10;36.90;101100.75;5029585;28;20060;-64
2022/05/04 09:47:44;;;;;;;8.18;3.97;;;;;;;21.34;36.33;101100.25;5024521;28;20057;-64
2022/05/04 09:50:13;;;;;;;5.15;3.47;;;;;;;21.54;36.64;101098.31;5032760;28;20152;-64
2022/05/04 09:52:46;;;;;;;7.78;3.85;;;;;;;21.56;35.76;101104.34;5026034;28;20049;-64
2022/05/04 09:55:19;;;;;;;7.47;4.10;;;;;;;21.39;35.47;101103.34;5013178;28;20536;-64
2022/05/04 09:57:47;;;;;;;5.47;3.78;;;;;;;21.28;36.98;101102.66;5006838;28;20061;-64
2022/05/04 10:00:17;;;;;;;7.45;3.67;;;;;;;21.42;36.79;101097.66;5015534;28;20053;-64
2022/05/04 10:02:44;;;;;;;8.45;4.28;;;;;;;21.79;35.80;101094.06;5026255;28;20060;-64
2022/05/04 10:05:12;;;;;;;14.65;4.57;;;;;;;21.97;35.65;101091.38;5028023;28;20354;-64
2022/05/04 10:07:41;;;;;;;7.03;3.63;;;;;;;21.82;35.76;101101.78;5030738;28;20425;-64
2022/05/04 10:10:10;;;;;;;11.93;4.78;;;;;;;21.66;36.38;101093.56;5031481;28;20049;-64
2022/05/04 10:12:38;;;;;;;9.93;4.53;;;;;;;21.27;35.91;101100.97;5030304;28;20640;-64
2022/05/04 10:15:10;;;;;;;10.48;5.03;;;;;;;20.66;36.86;101103.13;5045854;28;20061;-64
2022/05/04 10:17:44;;;;;;;9.40;4.97;;;;;;;20.31;37.44;101094.84;5045959;28;20079;-64
2022/05/04 10:20:15;;;;;;;8.48;5.75;;;;;;;20.28;37.41;101093.31;4997663;28;20056;-64
2022/05/04 10:22:47;;;;;;;16.70;4.70;;;;;;;20.37;37.56;101095.13;5020600;28;20046;-62
2022/05/04 10:25:14;;;;;;;5.45;4.40;;;;;;;20.84;37.38;101091.69;5034692;28;20040;-63
2022/05/04 10:27:43;;;;;;;9.65;5.38;;;;;;;21.33;36.77;101093.19;5014264;28;20056;-62
2022/05/04 10:30:30;;;;;;;8.93;4.50;;;;;;;21.76;36.31;101080.13;5030956;28;20108;-64
2022/05/04 10:33:03;;;;;;;7.40;3.80;;;;;;;22.16;35.87;101079.72;5027225;28;20381;-64
2022/05/04 10:35:34;;;;;;;7.22;4.30;;;;;;;22.12;35.16;101081.00;5024505;28;20072;-64
2022/05/04 10:38:01;;;;;;;6.38;4.35;;;;;;;21.67;35.47;101073.84;5052793;22;20063;-64
2022/05/04 10:40:36;;;;;;;8.60;4.50;;;;;;;21.63;35.49;101080.50;5081389;28;20059;-64
2022/05/04 10:43:04;;;;;;;;;;;;;;;21.46;35.79;101080.31;5082678;28;20130;-65
2022/05/04 10:45:36;;;;;;;7.22;4.20;;;;;;;21.30;36.62;101073.88;5087358;28;19923;-65
2022/05/04 10:48:15;;;;;;;9.68;4.57;;;;;;;21.06;36.88;101083.28;5067907;28;20547;-65
2022/05/04 10:51:02;;;;;;;7.88;4.20;;;;;;;20.70;36.77;101076.94;5086350;28;20063;-65
2022/05/04 10:53:32;;;;;;;12.95;4.38;;;;;;;20.53;37.20;101085.69;5095632;28;20040;-65
2022/05/04 10:56:00;;;;;;;8.48;4.20;;;;;;;20.58;37.52;101075.41;5089618;28;20063;-65
2022/05/04 10:58:38;;;;;;;12.77;4.75;;;;;;;20.38;37.96;101077.25;5074941;28;20052;-65
2022/05/04 11:01:12;;;;;;;10.02;4.10;;;;;;;20.36;37.90;101073.91;5084636;28;20066;-65
2022/05/04 11:04:08;;;;;;;6.23;4.27;;;;;;;20.32;38.00;101076.00;5082891;28;20167;-65
2022/05/04 11:06:36;;;;;;;;;;;;;;;20.17;38.24;101075.59;5084186;28;20473;-56
2022/05/04 11:09:10;;;;;;;8.75;3.42;;;;;;;20.52;37.85;101078.66;5088471;28;20425;-53
2022/05/04 11:11:40;;;;;;;4.93;4.43;;;;;;;20.65;37.10;101073.84;5077269;28;20144;-65
2022/05/04 11:14:08;;;;;;;7.10;4.35;;;;;;;20.67;37.41;101083.44;5091095;28;20063;-65
2022/05/04 11:16:35;;;;;;;8.52;4.97;;;;;;;20.57;37.48;101077.25;5093948;28;20048;-67
2022/05/04 11:19:03;;;;;;;7.90;4.95;;;;;;;20.99;36.77;101076.84;5065148;28;20655;-66
2022/05/04 11:21:32;;;;;;;9.93;5.00;;;;;;;21.03;36.54;101072.03;5086145;28;20689;-66
2022/05/04 11:24:01;;;;;;;10.68;4.65;;;;;;;21.25;36.24;101082.34;5093616;28;20557;-66
2022/05/04 11:26:48;;;;;;;7.10;5.07;;;;;;;21.65;35.72;101071.31;5082640;28;20047;-65
2022/05/04 11:29:23;;;;;;;6.63;4.50;;;;;;;22.17;35.31;101060.78;5086111;28;20078;-67
2022/05/04 11:31:55;;;;;;;8.18;4.45;;;;;;;22.66;34.39;101055.75;5083703;28;20052;-66
2022/05/04 11:34:24;;;;;;;8.95;5.50;;;;;;;23.45;33.14;101061.84;5063427;28;20482;-66
2022/05/04 11:36:53;;;;;;;10.82;5.63;;;;;;;23.67;31.99;101055.88;5077969;28;20818;-66
2022/05/04 11:39:23;;;;;;;7.18;5.60;;;;;;;23.03;32.81;101054.63;5090351;28;20070;-67
2022/05/04 11:41:53;;;;;;;9.13;4.88;;;;;;;22.96;33.35;101064.31;5083108;28;20130;-66
2022/05/04 11:44:22;;;;;;;11.13;4.55;;;;;;;23.34;33.44;101046.88;5064568;28;20123;-66
2022/05/04 11:46:50;;;;;;;6.85;4.07;;;;;;;23.77;33.02;101044.97;5080506;28;20052;-65
2022/05/04 11:49:22;;;;;;;5.63;4.18;;;;;;;24.06;32.26;101047.19;5084750;28;20056;-66
2022/05/04 11:51:50;;;;;;;6.65;4.13;;;;;;;23.73;32.38;101049.00;5087083;28;20064;-65
2022/05/04 11:54:18;;;;;;;7.43;4.65;;;;;;;23.45;32.51;101043.03;5083162;28;20036;-66
2022/05/04 11:56:45;;;;;;;6.43;4.38;;;;;;;23.40;32.83;101037.31;5078548;28;20512;-66
2022/05/04 11:59:12;;;;;;;9.05;4.43;;;;;;;23.84;32.26;101031.72;5063115;28;20055;-66